Ayr, Nebraska
Current Conditions -  °F | °C
As of 2:53 PM on Tuesday 27 Jan 2015 (Local Time) from KHSI Reporting Station
Clear Clear  
Wind Chill: 65°   Ceiling: Unl
Heat Index: 65°   Visibility: 10mi
Dew Point: 30°   Wind: 7mph
Humidity: 27%   Direction: 140°SE
Pressure: 29.95"   Gusts: NA
Location:  40.44°N, 98.44°W
Report Text: KHSI 272053Z AUTO 14006KT 10SM CLR 18/M01 A2995 RMK AO2 SLP146 T01831011 56024
Loading
Personal Weather Stations






























Interactive Weather Map New forecast layout! Learn more

10-Day Weather Forecast

Advertisements
Track Severe Weather on mobile